createdAt,value
2018-09-13T00:01:07.156Z,63.10
2018-09-13T00:03:36.576Z,63.00
2018-09-13T00:06:06.021Z,63.00
2018-09-13T00:08:35.373Z,63.00
2018-09-13T00:11:04.747Z,63.00
2018-09-13T00:13:34.116Z,62.90
2018-09-13T00:16:03.497Z,63.00
2018-09-13T00:18:32.850Z,62.90
2018-09-13T00:21:02.637Z,63.00
2018-09-13T00:23:32.037Z,63.00
2018-09-13T00:26:01.424Z,62.90
2018-09-13T00:28:31.021Z,63.00
2018-09-13T00:31:00.477Z,62.90
2018-09-13T00:33:29.812Z,63.00
2018-09-13T00:35:59.207Z,63.00
2018-09-13T00:38:28.545Z,63.00
2018-09-13T00:40:57.903Z,63.00
2018-09-13T00:43:27.306Z,63.20
2018-09-13T00:45:56.624Z,63.10
2018-09-13T00:48:25.986Z,63.20
2018-09-13T00:50:55.301Z,63.20
2018-09-13T00:53:24.694Z,63.10
2018-09-13T00:55:53.988Z,63.20
2018-09-13T00:58:23.379Z,63.20
2018-09-13T01:00:52.936Z,63.20
2018-09-13T01:03:22.304Z,63.20
2018-09-13T01:05:52.661Z,63.30
2018-09-13T01:08:21.995Z,63.30
2018-09-13T01:10:51.347Z,63.30
2018-09-13T01:13:20.745Z,63.30
2018-09-13T01:15:50.104Z,63.40
2018-09-13T01:18:19.440Z,63.40
2018-09-13T01:20:48.776Z,63.30
2018-09-13T01:23:18.145Z,63.40
2018-09-13T01:25:47.513Z,63.40
2018-09-13T01:28:16.867Z,63.50
2018-09-13T01:30:46.216Z,63.50
2018-09-13T01:33:15.656Z,63.50
2018-09-13T01:35:44.974Z,63.50
2018-09-13T01:38:14.311Z,63.50
2018-09-13T01:40:43.652Z,63.40
2018-09-13T01:43:13.023Z,63.60
2018-09-13T01:45:42.351Z,63.50
2018-09-13T01:48:11.847Z,63.50
2018-09-13T01:50:41.179Z,63.60
2018-09-13T01:53:10.522Z,63.50
2018-09-13T01:55:39.887Z,64.90
2018-09-13T01:58:09.280Z,64.30
2018-09-13T02:00:38.625Z,64.00
2018-09-13T02:03:08.053Z,63.70
2018-09-13T02:05:37.955Z,63.50
2018-09-13T02:08:07.341Z,64.30
2018-09-13T02:10:36.679Z,63.40
2018-09-13T02:13:06.263Z,63.40
2018-09-13T02:15:36.805Z,64.20
2018-09-13T02:18:06.225Z,63.50
2018-09-13T02:20:35.578Z,63.50
2018-09-13T02:23:06.144Z,63.70
2018-09-13T02:25:35.501Z,63.80
2018-09-13T02:28:04.901Z,63.90
2018-09-13T02:30:34.287Z,63.90
2018-09-13T02:33:03.623Z,64.00
2018-09-13T02:35:33.029Z,64.00
2018-09-13T02:38:02.465Z,64.60
2018-09-13T02:40:31.816Z,64.40
2018-09-13T02:43:01.228Z,64.30
2018-09-13T02:45:30.613Z,64.30
2018-09-13T02:48:00.008Z,64.30
2018-09-13T02:50:29.363Z,64.30
2018-09-13T02:52:58.959Z,64.40
2018-09-13T02:55:28.317Z,64.50
2018-09-13T02:57:57.645Z,64.50
2018-09-13T03:00:26.944Z,64.60
2018-09-13T03:02:56.380Z,64.80
2018-09-13T03:05:25.786Z,64.70
2018-09-13T03:07:55.295Z,64.70
2018-09-13T03:10:24.657Z,64.60
2018-09-13T03:12:53.992Z,64.60
2018-09-13T03:15:23.334Z,64.50
2018-09-13T03:17:52.756Z,64.50
2018-09-13T03:20:22.071Z,64.40
2018-09-13T03:22:51.409Z,64.60
2018-09-13T03:25:20.781Z,64.70
2018-09-13T03:27:50.193Z,64.70
2018-09-13T03:30:19.552Z,64.70
2018-09-13T03:32:48.942Z,64.80
2018-09-13T03:35:18.424Z,65.00
2018-09-13T03:37:47.813Z,65.00
2018-09-13T03:40:17.260Z,65.10
2018-09-13T03:42:46.647Z,65.10
2018-09-13T03:45:15.999Z,65.10
2018-09-13T03:47:45.399Z,65.10
2018-09-13T03:50:14.767Z,65.10
2018-09-13T03:52:44.117Z,65.90
2018-09-13T03:55:13.473Z,65.60
2018-09-13T03:57:42.823Z,66.60
2018-09-13T04:00:12.160Z,66.10
2018-09-13T04:02:41.501Z,65.90
2018-09-13T04:05:10.871Z,65.80
2018-09-13T04:07:40.265Z,65.70
2018-09-13T04:10:09.655Z,65.70
2018-09-13T04:12:38.994Z,65.60
2018-09-13T04:15:08.408Z,65.70
2018-09-13T04:17:37.826Z,65.60
2018-09-13T04:20:07.126Z,65.70
2018-09-13T04:22:36.510Z,66.60
2018-09-13T04:25:06.536Z,65.90
2018-09-13T04:27:35.924Z,66.00
2018-09-13T04:30:05.329Z,66.10
2018-09-13T04:32:34.712Z,66.10
2018-09-13T04:35:04.075Z,66.20
2018-09-13T04:37:33.436Z,66.20
2018-09-13T04:40:02.801Z,66.30
2018-09-13T04:42:32.215Z,66.30
2018-09-13T04:45:01.585Z,66.30
2018-09-13T04:47:30.981Z,66.50
2018-09-13T04:50:00.376Z,66.50
2018-09-13T04:52:29.800Z,66.50
2018-09-13T04:54:59.144Z,66.50
2018-09-13T04:57:28.534Z,66.50
2018-09-13T04:59:57.868Z,66.60
2018-09-13T05:02:28.231Z,66.60
2018-09-13T05:04:57.580Z,66.70
2018-09-13T05:07:27.013Z,66.80
2018-09-13T05:09:56.403Z,66.80
2018-09-13T05:12:25.736Z,66.90
2018-09-13T05:14:55.193Z,66.90
2018-09-13T05:17:24.526Z,66.90
2018-09-13T05:19:54.082Z,67.00
2018-09-13T05:22:23.417Z,66.90
2018-09-13T05:24:52.747Z,67.00
2018-09-13T05:27:22.071Z,67.00
2018-09-13T05:29:51.638Z,67.10
2018-09-13T05:32:20.952Z,67.20
2018-09-13T05:34:50.377Z,67.20
2018-09-13T05:37:19.719Z,67.30
2018-09-13T05:39:49.101Z,67.30
2018-09-13T05:42:18.458Z,67.50
2018-09-13T05:44:47.827Z,67.50
2018-09-13T05:47:17.192Z,67.60
2018-09-13T05:49:46.532Z,67.70
2018-09-13T05:52:15.886Z,67.70
2018-09-13T05:54:45.243Z,70.00
2018-09-13T05:57:14.609Z,69.10
2018-09-13T05:59:44.066Z,68.60
2018-09-13T06:02:13.402Z,68.70
2018-09-13T06:04:42.768Z,68.40
2018-09-13T06:07:12.122Z,68.20
2018-09-13T06:09:41.499Z,68.20
2018-09-13T06:12:10.884Z,68.20
2018-09-13T06:14:40.219Z,69.00
2018-09-13T06:17:09.609Z,68.20
2018-09-13T06:19:39.079Z,68.20
2018-09-13T06:22:08.767Z,68.10
2018-09-13T06:24:38.113Z,68.00
2018-09-13T06:27:07.537Z,68.10
2018-09-13T06:29:37.239Z,68.00
2018-09-13T06:32:06.791Z,67.90
2018-09-13T06:34:36.112Z,67.80
2018-09-13T06:37:05.484Z,67.80
2018-09-13T06:39:34.821Z,67.60
2018-09-13T06:42:04.200Z,67.70
2018-09-13T06:44:33.549Z,67.70
2018-09-13T06:47:02.933Z,67.70
2018-09-13T06:49:32.328Z,67.60
2018-09-13T06:52:01.670Z,67.60
2018-09-13T06:54:31.010Z,67.60
2018-09-13T06:57:00.400Z,67.50
2018-09-13T06:59:29.761Z,67.50
2018-09-13T07:01:59.113Z,67.50
2018-09-13T07:04:28.475Z,67.50
2018-09-13T07:06:57.847Z,67.50
2018-09-13T07:09:27.193Z,67.40
2018-09-13T07:11:56.604Z,67.30
2018-09-13T07:14:25.960Z,68.40
2018-09-13T07:16:55.342Z,68.00
2018-09-13T07:19:24.712Z,67.80
2018-09-13T07:21:54.057Z,67.60
2018-09-13T07:24:23.477Z,67.50
2018-09-13T07:26:52.846Z,67.30
2018-09-13T07:29:22.268Z,67.20
2018-09-13T07:31:51.641Z,67.20
2018-09-13T07:34:21.010Z,67.10
2018-09-13T07:36:50.390Z,67.10
2018-09-13T07:39:19.777Z,67.10
2018-09-13T07:41:49.123Z,67.00
2018-09-13T07:44:18.492Z,67.00
2018-09-13T07:46:47.856Z,66.90
2018-09-13T07:49:17.273Z,66.90
2018-09-13T07:51:46.616Z,66.90
2018-09-13T07:54:15.973Z,68.00
2018-09-13T07:56:45.396Z,67.60
2018-09-13T07:59:15.004Z,67.30
2018-09-13T08:01:44.466Z,67.20
2018-09-13T08:04:13.895Z,67.10
2018-09-13T08:06:43.363Z,67.10
2018-09-13T08:09:13.640Z,67.10
2018-09-13T08:11:43.159Z,67.80
2018-09-13T08:14:12.599Z,67.00
2018-09-13T08:16:41.971Z,66.90
2018-09-13T08:19:11.562Z,67.00
2018-09-13T08:21:40.996Z,66.80
2018-09-13T08:24:10.276Z,66.80
2018-09-13T08:26:39.686Z,66.80
2018-09-13T08:29:09.002Z,66.70
2018-09-13T08:31:38.355Z,66.60
2018-09-13T08:34:07.713Z,66.60
2018-09-13T08:36:37.104Z,66.60
2018-09-13T08:39:10.384Z,66.60
2018-09-13T08:41:39.793Z,66.60
2018-09-13T08:44:09.202Z,66.50
2018-09-13T08:46:38.544Z,66.50
2018-09-13T08:49:07.909Z,66.50
2018-09-13T08:51:37.308Z,66.60
2018-09-13T08:54:06.670Z,66.50
2018-09-13T08:56:36.012Z,67.10
2018-09-13T08:59:05.360Z,66.50
2018-09-13T09:01:34.721Z,66.50
2018-09-13T09:04:04.109Z,66.50
2018-09-13T09:06:33.619Z,66.50
2018-09-13T09:09:03.084Z,66.50
2018-09-13T09:11:32.469Z,66.50
2018-09-13T09:14:01.784Z,66.40
2018-09-13T09:16:31.123Z,66.40
2018-09-13T09:19:00.470Z,66.30
2018-09-13T09:21:29.902Z,66.20
2018-09-13T09:23:59.320Z,66.20
2018-09-13T09:26:28.629Z,66.10
2018-09-13T09:28:58.037Z,66.10
2018-09-13T09:31:27.352Z,66.10
2018-09-13T09:33:56.723Z,65.90
2018-09-13T09:36:26.141Z,65.90
2018-09-13T09:38:55.518Z,65.90
2018-09-13T09:41:24.884Z,65.80
2018-09-13T09:43:54.256Z,65.80
2018-09-13T09:46:23.637Z,65.80
2018-09-13T09:48:53.047Z,65.80
2018-09-13T09:51:22.438Z,65.80
2018-09-13T09:53:51.899Z,65.60
2018-09-13T09:56:21.256Z,65.80
2018-09-13T09:58:50.636Z,65.60
2018-09-13T10:01:26.988Z,65.60
2018-09-13T10:03:57.842Z,65.60
2018-09-13T10:06:27.232Z,65.40
2018-09-13T10:08:57.168Z,65.40
2018-09-13T10:11:26.531Z,65.40
2018-09-13T10:13:55.928Z,65.40
2018-09-13T10:16:30.780Z,65.40
2018-09-13T10:19:05.401Z,65.30
2018-09-13T10:23:42.531Z,65.30
2018-09-13T10:26:17.082Z,65.30
2018-09-13T10:28:51.570Z,65.10
2018-09-13T10:31:26.165Z,65.40
2018-09-13T10:34:00.751Z,65.40
2018-09-13T10:36:35.289Z,65.30
2018-09-13T10:39:11.862Z,65.30
2018-09-13T10:41:46.529Z,65.30
2018-09-13T10:44:21.133Z,65.20
2018-09-13T10:46:55.560Z,65.10
2018-09-13T10:49:29.983Z,65.20
2018-09-13T10:52:04.420Z,65.10
2018-09-13T10:54:39.738Z,65.00
2018-09-13T10:57:14.317Z,65.10
2018-09-13T10:59:44.718Z,65.00
2018-09-13T11:02:14.200Z,65.00
2018-09-13T11:04:43.637Z,64.90
2018-09-13T11:07:13.044Z,64.90
2018-09-13T11:09:42.392Z,64.90
2018-09-13T11:12:11.773Z,64.90
2018-09-13T11:14:56.609Z,64.90
2018-09-13T11:17:26.693Z,64.80
2018-09-13T11:19:56.098Z,64.60
2018-09-13T11:22:25.456Z,64.60
2018-09-13T11:24:54.873Z,64.60
2018-09-13T11:27:24.278Z,64.60
2018-09-13T11:29:53.803Z,64.70
2018-09-13T11:32:23.164Z,64.70
2018-09-13T11:34:52.530Z,64.70
2018-09-13T11:37:21.922Z,64.70
2018-09-13T11:39:51.444Z,64.60
2018-09-13T11:42:20.745Z,64.50
2018-09-13T11:44:50.141Z,64.60
2018-09-13T11:47:19.501Z,64.70
2018-09-13T11:49:49.222Z,64.60
2018-09-13T11:52:18.616Z,64.50
2018-09-13T11:54:48.062Z,64.40
2018-09-13T11:57:17.411Z,64.40
2018-09-13T11:59:46.824Z,64.30
2018-09-13T12:02:16.248Z,64.40
2018-09-13T12:04:45.625Z,64.50
2018-09-13T12:07:14.965Z,64.50
2018-09-13T12:09:44.536Z,64.50
2018-09-13T12:12:13.930Z,64.30
2018-09-13T12:14:43.415Z,65.10
2018-09-13T12:17:12.749Z,64.30
2018-09-13T12:19:42.164Z,64.30
2018-09-13T12:22:11.573Z,64.20
2018-09-13T12:24:41.035Z,64.50
2018-09-13T12:27:10.406Z,64.80
2018-09-13T12:29:39.808Z,64.80
2018-09-13T12:32:09.164Z,64.80
2018-09-13T12:34:38.520Z,64.70
2018-09-13T12:37:07.903Z,64.70
2018-09-13T12:39:37.297Z,64.60
2018-09-13T12:42:06.687Z,64.70
2018-09-13T12:44:36.072Z,64.70
2018-09-13T12:47:05.501Z,64.60
2018-09-13T12:49:34.890Z,64.60
2018-09-13T12:52:04.270Z,64.60
2018-09-13T12:54:33.727Z,64.60
2018-09-13T12:57:03.162Z,64.50
2018-09-13T12:59:32.504Z,64.50
2018-09-13T13:02:01.946Z,64.60
2018-09-13T13:04:31.367Z,64.50
2018-09-13T13:07:00.763Z,64.50
2018-09-13T13:09:30.127Z,64.50
2018-09-13T13:11:59.565Z,64.30
2018-09-13T13:14:28.994Z,64.40
2018-09-13T13:17:00.156Z,64.30
2018-09-13T13:19:29.653Z,64.30
2018-09-13T13:21:59.001Z,64.30
2018-09-13T13:24:28.384Z,64.30
2018-09-13T13:26:57.835Z,64.30
2018-09-13T13:29:27.190Z,64.20
2018-09-13T13:31:56.593Z,64.10
2018-09-13T13:34:25.983Z,64.20
2018-09-13T13:36:55.392Z,64.10
2018-09-13T13:39:24.788Z,64.10
2018-09-13T13:41:54.185Z,64.10
2018-09-13T13:44:23.588Z,64.00
2018-09-13T13:46:52.994Z,64.00
2018-09-13T13:49:22.432Z,64.00
2018-09-13T13:51:51.803Z,64.00
2018-09-13T13:54:22.032Z,63.90
2018-09-13T13:56:51.447Z,63.80
2018-09-13T13:59:20.874Z,63.80
2018-09-13T14:01:50.289Z,63.80
2018-09-13T14:04:19.719Z,63.70
2018-09-13T14:06:49.094Z,63.80
2018-09-13T14:09:18.457Z,63.80
2018-09-13T14:11:47.834Z,63.70
2018-09-13T14:14:17.230Z,63.80
2018-09-13T14:16:46.614Z,63.80
2018-09-13T14:19:16.232Z,63.80
2018-09-13T14:21:45.597Z,63.70
2018-09-13T14:24:14.989Z,64.50
2018-09-13T14:26:44.601Z,63.70
2018-09-13T14:29:14.057Z,63.80
2018-09-13T14:31:43.448Z,63.70
2018-09-13T14:34:12.799Z,63.60
2018-09-13T14:36:42.193Z,63.60
2018-09-13T14:39:12.172Z,63.60
2018-09-13T14:41:41.580Z,63.60
2018-09-13T14:44:10.966Z,64.30
2018-09-13T14:46:40.345Z,63.60
2018-09-13T14:49:09.765Z,63.60
2018-09-13T14:51:39.180Z,63.60
2018-09-13T14:54:08.668Z,63.60
2018-09-13T14:56:38.072Z,63.60
2018-09-13T14:59:07.642Z,63.70
2018-09-13T15:01:37.018Z,63.60
2018-09-13T15:04:06.465Z,63.50
2018-09-13T15:06:35.904Z,63.60
2018-09-13T15:09:08.468Z,63.70
2018-09-13T15:11:37.886Z,63.60
2018-09-13T15:14:07.260Z,63.70
2018-09-13T15:16:36.646Z,63.70
2018-09-13T15:19:06.055Z,63.80
2018-09-13T15:21:35.501Z,63.80
2018-09-13T15:24:04.952Z,64.00
2018-09-13T15:26:34.339Z,63.80
2018-09-13T15:29:03.767Z,64.00
2018-09-13T15:31:33.221Z,64.00
2018-09-13T15:34:02.564Z,64.00
2018-09-13T15:36:32.074Z,64.10
2018-09-13T15:39:01.466Z,64.40
2018-09-13T15:41:30.820Z,64.40
2018-09-13T15:44:00.258Z,64.60
2018-09-13T15:46:29.668Z,64.80
2018-09-13T15:48:59.116Z,64.90
2018-09-13T15:51:28.540Z,65.10
2018-09-13T15:53:57.898Z,65.80
2018-09-13T15:56:27.252Z,65.10
2018-09-13T15:58:56.732Z,66.00
2018-09-13T16:01:26.099Z,65.40
2018-09-13T16:03:55.500Z,65.50
2018-09-13T16:06:25.073Z,65.70
2018-09-13T16:08:54.467Z,65.90
2018-09-13T16:11:23.822Z,65.70
2018-09-13T16:13:53.293Z,65.60
2018-09-13T16:16:22.689Z,65.80
2018-09-13T16:18:52.067Z,66.20
2018-09-13T16:21:21.522Z,66.50
2018-09-13T16:23:50.920Z,66.70
2018-09-13T16:26:20.360Z,66.90
2018-09-13T16:28:49.760Z,67.00
2018-09-13T16:31:19.341Z,67.10
2018-09-13T16:33:48.741Z,67.30
2018-09-13T16:36:25.682Z,67.40
2018-09-13T16:39:00.481Z,67.30
2018-09-13T16:41:40.345Z,67.60
2018-09-13T16:44:13.800Z,67.80
2018-09-13T16:46:48.461Z,67.80
2018-09-13T16:49:17.808Z,68.00
2018-09-13T16:51:47.205Z,68.00
2018-09-13T16:54:16.617Z,68.20
2018-09-13T16:56:46.059Z,68.30
2018-09-13T16:59:15.425Z,68.40
2018-09-13T17:01:44.840Z,68.50
2018-09-13T17:04:14.292Z,68.60
2018-09-13T17:06:43.760Z,68.90
2018-09-13T17:09:13.158Z,68.90
2018-09-13T17:11:42.574Z,69.00
2018-09-13T17:14:11.924Z,69.10
2018-09-13T17:16:41.343Z,69.10
2018-09-13T17:19:10.703Z,70.10
2018-09-13T17:21:40.149Z,69.90
2018-09-13T17:24:09.538Z,69.80
2018-09-13T17:26:38.910Z,69.80
2018-09-13T17:29:08.275Z,69.80
2018-09-13T17:31:37.692Z,69.80
2018-09-13T17:34:07.097Z,69.80
2018-09-13T17:36:36.513Z,69.90
2018-09-13T17:39:10.115Z,69.90
2018-09-13T17:41:39.569Z,69.90
2018-09-13T17:44:09.072Z,69.90
2018-09-13T17:46:39.693Z,70.00
2018-09-13T17:49:09.045Z,70.00
2018-09-13T17:51:38.999Z,70.30
2018-09-13T17:54:08.388Z,70.20
2018-09-13T17:56:37.843Z,70.30
2018-09-13T17:59:07.278Z,70.30
2018-09-13T18:01:36.691Z,70.40
2018-09-13T18:04:06.217Z,70.50
2018-09-13T18:06:35.674Z,70.60
2018-09-13T18:09:08.002Z,70.60
2018-09-13T18:11:37.506Z,70.70
2018-09-13T18:14:07.049Z,70.60
2018-09-13T18:16:36.524Z,70.80
2018-09-13T18:19:05.921Z,71.70
2018-09-13T18:21:35.378Z,71.00
2018-09-13T18:24:04.865Z,71.10
2018-09-13T18:26:34.276Z,71.20
2018-09-13T18:29:05.803Z,71.20
2018-09-13T18:31:37.252Z,71.30
2018-09-13T18:34:08.859Z,71.40
2018-09-13T18:36:40.290Z,71.40
2018-09-13T18:39:12.900Z,71.50
2018-09-13T18:41:44.011Z,71.60
2018-09-13T18:44:15.276Z,71.70
2018-09-13T18:46:44.697Z,71.70
2018-09-13T18:49:14.175Z,71.70
2018-09-13T18:51:43.675Z,71.70
2018-09-13T18:54:13.219Z,71.70
2018-09-13T18:56:42.565Z,72.00
2018-09-13T18:59:11.992Z,72.00
2018-09-13T19:01:41.420Z,72.00
2018-09-13T19:04:10.934Z,72.00
2018-09-13T19:06:40.436Z,72.00
2018-09-13T19:09:11.076Z,72.10
2018-09-13T19:11:40.546Z,72.20
2018-09-13T19:14:10.029Z,72.50
2018-09-13T19:16:39.461Z,72.30
2018-09-13T19:19:08.911Z,72.30
2018-09-13T19:21:38.403Z,72.30
2018-09-13T19:24:08.067Z,72.30
2018-09-13T19:26:37.567Z,72.30
2018-09-13T19:29:07.063Z,72.40
2018-09-13T19:31:36.642Z,72.40
2018-09-13T19:34:06.234Z,72.40
2018-09-13T19:36:35.721Z,72.50
2018-09-13T19:39:08.665Z,72.60
2018-09-13T19:41:38.207Z,72.70
2018-09-13T19:44:07.761Z,72.80
2018-09-13T19:46:37.141Z,72.80
2018-09-13T19:49:06.601Z,72.70
2018-09-13T19:51:36.071Z,72.70
2018-09-13T19:54:05.538Z,75.00
2018-09-13T19:56:34.996Z,74.00
2018-09-13T19:59:04.470Z,73.60
2018-09-13T20:01:33.906Z,73.40
2018-09-13T20:04:03.357Z,73.20
2018-09-13T20:06:32.870Z,73.10
2018-09-13T20:09:02.340Z,73.00
2018-09-13T20:11:31.837Z,73.00
2018-09-13T20:14:02.464Z,72.90
2018-09-13T20:16:32.095Z,73.10
2018-09-13T20:19:01.522Z,73.10
2018-09-13T20:21:30.980Z,73.20
2018-09-13T20:24:00.747Z,73.20
2018-09-13T20:26:30.717Z,73.20
2018-09-13T20:29:00.225Z,73.20
2018-09-13T20:31:29.603Z,74.00
2018-09-13T20:33:59.034Z,73.20
2018-09-13T20:36:28.407Z,73.20
2018-09-13T20:38:57.881Z,73.30
2018-09-13T20:41:27.239Z,73.30
2018-09-13T20:43:56.745Z,73.40
2018-09-13T20:46:26.125Z,73.50
2018-09-13T20:48:55.537Z,73.30
2018-09-13T20:51:25.002Z,73.50
2018-09-13T20:53:54.458Z,73.50
2018-09-13T20:56:23.873Z,73.50
2018-09-13T20:58:53.293Z,73.50
2018-09-13T21:01:22.622Z,73.50
2018-09-13T21:03:52.005Z,73.60
2018-09-13T21:06:21.405Z,73.60
2018-09-13T21:08:50.874Z,73.70
2018-09-13T21:11:20.268Z,74.80
2018-09-13T21:13:49.682Z,74.30
2018-09-13T21:16:19.146Z,74.20
2018-09-13T21:18:48.533Z,74.00
2018-09-13T21:21:17.913Z,73.90
2018-09-13T21:23:47.471Z,73.80
2018-09-13T21:26:16.855Z,73.90
2018-09-13T21:28:46.205Z,73.80
2018-09-13T21:31:15.614Z,73.90
2018-09-13T21:33:45.052Z,73.90
2018-09-13T21:36:14.458Z,73.90
2018-09-13T21:38:43.848Z,73.90
2018-09-13T21:41:13.324Z,73.80
2018-09-13T21:43:42.701Z,74.00
2018-09-13T21:46:12.146Z,74.00
2018-09-13T21:48:41.514Z,74.00
2018-09-13T21:51:10.879Z,74.00
2018-09-13T21:53:40.235Z,74.10
2018-09-13T21:56:09.599Z,74.10
2018-09-13T21:58:38.976Z,74.10
2018-09-13T22:01:08.326Z,74.10
2018-09-13T22:03:37.703Z,74.90
2018-09-13T22:06:07.150Z,74.20
2018-09-13T22:08:36.548Z,74.20
2018-09-13T22:11:06.001Z,74.20
2018-09-13T22:13:35.322Z,74.10
2018-09-13T22:16:04.736Z,74.20
2018-09-13T22:18:34.124Z,74.20
2018-09-13T22:21:03.464Z,74.30
2018-09-13T22:23:32.848Z,74.30
2018-09-13T22:26:02.330Z,74.40
2018-09-13T22:28:31.692Z,74.60
2018-09-13T22:31:01.078Z,74.50
2018-09-13T22:33:30.407Z,74.40
2018-09-13T22:35:59.764Z,74.50
2018-09-13T22:38:29.157Z,74.40
2018-09-13T22:40:58.541Z,74.50
2018-09-13T22:43:32.033Z,74.50
2018-09-13T22:46:01.441Z,74.60
2018-09-13T22:48:30.784Z,74.50
2018-09-13T22:51:00.226Z,74.50
2018-09-13T22:53:29.637Z,74.50
2018-09-13T22:55:58.925Z,74.50
2018-09-13T22:58:28.446Z,74.60
2018-09-13T23:00:58.298Z,74.60
2018-09-13T23:03:27.793Z,74.60
2018-09-13T23:05:57.221Z,74.60
2018-09-13T23:08:26.658Z,76.20
2018-09-13T23:10:56.183Z,75.40
2018-09-13T23:13:25.642Z,77.00
2018-09-13T23:15:55.088Z,76.10
2018-09-13T23:18:24.456Z,75.70
2018-09-13T23:20:53.849Z,75.30
2018-09-13T23:23:23.163Z,75.20
2018-09-13T23:25:52.531Z,75.00
2018-09-13T23:28:21.859Z,74.80
2018-09-13T23:30:51.250Z,74.80
2018-09-13T23:33:20.580Z,74.70
2018-09-13T23:35:50.021Z,74.70
2018-09-13T23:38:19.372Z,74.70
2018-09-13T23:40:48.849Z,74.70
2018-09-13T23:43:18.053Z,75.70
2018-09-13T23:45:47.427Z,74.70
2018-09-13T23:48:16.761Z,76.50
2018-09-13T23:50:46.110Z,76.10
2018-09-13T23:53:15.455Z,75.60
2018-09-13T23:55:44.800Z,75.30
2018-09-13T23:58:14.143Z,74.50
